Boron, CA (93516)

10:33 PM PST on February 13, 2016 (GMT -0800)
APRSWXNET | | Change Station
CLOSE
Current Station
Personal Weather Station
Location: Boron, CA
Elevation: 2450 ft
Nearby Weather Stations

Elev 2450 ft 35.00 °N, 117.65 °W | Updated 44 minutes ago

Clear
Clear
51 °F
Feels Like 51 °F
N
5
Wind Variable Wind from SW
Gusts 7.0 mph

Today
High -- | Low -- °F
--% Chance of Precip.
Yesterday
High -- | Low -- °F
Precip. -- in
Pressure 30.19 in
Visibility 8.0 miles
Clouds Clear
Dew Point 34 °F
Humidity 53%
Rainfall in
Snow Depth Not available.
6:39 AM 5:31 PM
Waxing Crescent, 38% visible
METAR K9L2 140556Z AUTO 34004KT 8SM CLR 07/01 A3017 RMK AO2 SLP223 T00720011 10256 20072 51012 $
Pressure 30.19 in
Visibility 8.0 miles
Clouds Clear
Dew Point 34 °F
Humidity 53%
Rainfall in
Snow Depth Not available.
6:39 AM 5:31 PM
Waxing Crescent, 38% visible
METAR K9L2 140556Z AUTO 34004KT 8SM CLR 07/01 A3017 RMK AO2 SLP223 T00720011 10256 20072 51012 $

10-Day Weather Forecast

Almanac

Astronomy

Feb. 13, 2016 Rise Set
Actual Time
Civil Twilight
Nautical Twilight
Astronomical Twilight
Moon
Length of Visible Light
Length of Day
Tomorrow will be .
, % of the Moon is Illuminated

Today's Extremes

State Highs State Lows

Community

WunderPhotos

Upload Photos

1,892,757 photos uploaded!

WunderBlog® & News

Nearby

Air Quality

  Air Quality AQ Index Pollutant
Not available.

Snow Depth

Station Depth Elevation

Earthquake Activity

City Distance Mag. Time & Date
Minimum magnitude displayed is 2.5.

Coastal Water Temperatures

Place Temperature

Stations

Nearby Weather Stations

Station Location Temp. Windchill Dew Point Humidity Wind Precip. Elev Updated Type
                   

Watches & Warnings

There are currently no watches in effect.